Time,TemperatureF,DewpointF,PressureIn,WindDirection,WindDirectionDegrees,WindSpeedMPH,WindSpeedGustMPH,Humidity,HourlyPrecipIn,Conditions,Clouds,dailyrainin,SoftwareType,DateUTC
2013-03-14 00:00:00,62.2,37.8,30.15,NNE,27,11.0,19.0,38,0.00,,,0.00,meteohub,2013-03-14 07:00:00,
2013-03-14 00:05:00,62.2,37.8,30.15,NNE,29,15.0,19.0,38,0.00,,,0.00,meteohub,2013-03-14 07:05:00,
2013-03-14 00:11:00,62.4,37.8,30.15,NNE,29,12.0,21.0,38,0.00,,,0.00,meteohub,2013-03-14 07:11:00,
2013-03-14 00:16:00,62.2,37.8,30.15,NE,40,19.0,24.0,38,0.00,,,0.00,meteohub,2013-03-14 07:16:00,
2013-03-14 00:21:00,62.2,37.6,30.14,NNE,26,14.0,24.0,38,0.00,,,0.00,meteohub,2013-03-14 07:21:00,
2013-03-14 00:27:00,62.2,37.6,30.14,NNE,30,14.0,24.0,38,0.00,,,0.00,meteohub,2013-03-14 07:27:00,
2013-03-14 00:32:00,62.4,37.6,30.14,NE,49,17.0,24.0,38,0.00,,,0.00,meteohub,2013-03-14 07:32:00,
2013-03-14 00:37:00,62.4,37.6,30.14,NNE,20,15.0,24.0,38,0.00,,,0.00,meteohub,2013-03-14 07:37:00,
2013-03-14 00:42:00,62.2,37.6,30.14,NE,53,19.0,24.0,38,0.00,,,0.00,meteohub,2013-03-14 07:42:00,
2013-03-14 00:47:00,62.2,37.6,30.14,NNE,23,11.0,23.0,38,0.00,,,0.00,meteohub,2013-03-14 07:47:00,
2013-03-14 00:52:00,62.2,37.4,30.14,NE,41,15.0,23.0,38,0.00,,,0.00,meteohub,2013-03-14 07:52:00,
2013-03-14 00:57:00,62.1,37.4,30.14,NE,54,13.0,22.0,38,0.00,,,0.00,meteohub,2013-03-14 07:57:00,
2013-03-14 01:02:00,62.1,37.4,30.14,NNE,33,14.0,22.0,38,0.00,,,0.00,meteohub,2013-03-14 08:02:00,
2013-03-14 01:08:00,62.1,37.2,30.14,NE,40,15.0,20.0,38,0.00,,,0.00,meteohub,2013-03-14 08:08:00,
2013-03-14 01:13:00,61.7,37.2,30.14,ENE,68,11.0,20.0,38,0.00,,,0.00,meteohub,2013-03-14 08:13:00,
2013-03-14 01:18:00,61.7,37.2,30.14,NNE,12,17.0,19.0,38,0.00,,,0.00,meteohub,2013-03-14 08:18:00,
2013-03-14 01:23:00,61.7,37.2,30.14,ENE,64,16.0,22.0,38,0.00,,,0.00,meteohub,2013-03-14 08:23:00,
2013-03-14 01:29:00,61.3,37.2,30.14,NNE,27,10.0,22.0,38,0.00,,,0.00,meteohub,2013-03-14 08:29:00,
2013-03-14 01:34:00,61.3,37.0,30.14,ENE,64,16.0,22.0,38,0.00,,,0.00,meteohub,2013-03-14 08:34:00,
2013-03-14 01:39:00,61.3,37.0,30.14,NE,38,18.0,21.0,38,0.00,,,0.00,meteohub,2013-03-14 08:39:00,
2013-03-14 01:44:00,61.5,37.0,30.14,NNE,25,12.0,21.0,38,0.00,,,0.00,meteohub,2013-03-14 08:44:00,
2013-03-14 01:49:00,61.3,37.0,30.14,NNE,22,10.0,18.0,38,0.00,,,0.00,meteohub,2013-03-14 08:49:00,
2013-03-14 01:55:00,61.5,37.0,30.14,NE,40,11.0,19.0,38,0.00,,,0.00,meteohub,2013-03-14 08:55:00,
2013-03-14 02:00:00,61.3,37.0,30.14,NNE,25,11.0,18.0,38,0.00,,,0.00,meteohub,2013-03-14 09:00:00,
2013-03-14 02:06:00,61.3,37.0,30.14,NNE,32,12.0,19.0,38,0.00,,,0.00,meteohub,2013-03-14 09:06:00,
2013-03-14 02:11:00,61.3,37.0,30.14,NE,36,13.0,19.0,38,0.00,,,0.00,meteohub,2013-03-14 09:11:00,
2013-03-14 02:16:00,61.3,37.0,30.14,NE,53,11.0,19.0,38,0.00,,,0.00,meteohub,2013-03-14 09:16:00,
2013-03-14 02:21:00,61.3,37.0,30.14,ENE,63,11.0,19.0,38,0.00,,,0.00,meteohub,2013-03-14 09:21:00,
2013-03-14 02:27:00,61.3,36.9,30.13,NE,43,13.0,19.0,38,0.00,,,0.00,meteohub,2013-03-14 09:27:00,
2013-03-14 02:32:00,61.5,36.9,30.13,NE,50,16.0,21.0,38,0.00,,,0.00,meteohub,2013-03-14 09:32:00,
2013-03-14 02:37:00,61.5,36.9,30.13,NNE,30,12.0,21.0,38,0.00,,,0.00,meteohub,2013-03-14 09:37:00,
2013-03-14 02:42:00,61.3,36.9,30.13,NE,39,14.0,21.0,38,0.00,,,0.00,meteohub,2013-03-14 09:42:00,
2013-03-14 02:47:00,61.2,36.9,30.13,NNE,27,11.0,20.0,38,0.00,,,0.00,meteohub,2013-03-14 09:47:00,
2013-03-14 02:52:00,60.6,36.7,30.13,NNE,25,9.0,19.0,38,0.00,,,0.00,meteohub,2013-03-14 09:52:00,
2013-03-14 02:57:00,60.4,36.7,30.13,NE,56,11.0,18.0,38,0.00,,,0.00,meteohub,2013-03-14 09:57:00,
2013-03-14 03:02:00,60.3,36.7,30.13,NE,37,7.0,15.0,38,0.00,,,0.00,meteohub,2013-03-14 10:02:00,
2013-03-14 03:07:00,60.1,36.7,30.14,NE,53,7.0,14.0,38,0.00,,,0.00,meteohub,2013-03-14 10:07:00,
2013-03-14 03:12:00,60.1,36.5,30.13,NE,37,6.0,14.0,38,0.00,,,0.00,meteohub,2013-03-14 10:12:00,
2013-03-14 03:17:00,60.1,36.5,30.13,NE,38,7.0,14.0,38,0.00,,,0.00,meteohub,2013-03-14 10:17:00,
2013-03-14 03:22:00,60.3,36.5,30.13,ENE,65,10.0,12.0,38,0.00,,,0.00,meteohub,2013-03-14 10:22:00,
2013-03-14 03:27:00,60.3,36.5,30.13,NE,51,10.0,12.0,38,0.00,,,0.00,meteohub,2013-03-14 10:27:00,
2013-03-14 03:33:00,60.4,36.5,30.13,NNE,27,8.0,16.0,38,0.00,,,0.00,meteohub,2013-03-14 10:33:00,
2013-03-14 03:38:00,60.3,36.3,30.13,NNE,33,8.0,16.0,38,0.00,,,0.00,meteohub,2013-03-14 10:38:00,
2013-03-14 03:43:00,60.1,36.3,30.13,NNE,19,12.0,16.0,38,0.00,,,0.00,meteohub,2013-03-14 10:43:00,
2013-03-14 03:48:00,60.1,36.3,30.13,NNE,30,14.0,14.0,38,0.00,,,0.00,meteohub,2013-03-14 10:48:00,
2013-03-14 03:53:00,60.4,36.3,30.13,NNE,23,10.0,14.0,38,0.00,,,0.00,meteohub,2013-03-14 10:53:00,
2013-03-14 03:58:00,60.6,35.6,30.13,NNE,29,11.0,14.0,37,0.00,,,0.00,meteohub,2013-03-14 10:58:00,
2013-03-14 04:04:00,60.6,35.6,30.13,NE,42,11.0,16.0,37,0.00,,,0.00,meteohub,2013-03-14 11:04:00,
2013-03-14 04:09:00,60.6,35.6,30.13,NE,42,11.0,16.0,37,0.00,,,0.00,meteohub,2013-03-14 11:09:00,
2013-03-14 04:14:00,61.0,35.4,30.13,NE,56,15.0,16.0,37,0.00,,,0.00,meteohub,2013-03-14 11:14:00,
2013-03-14 04:19:00,61.0,35.4,30.13,NE,42,12.0,17.0,37,0.00,,,0.00,meteohub,2013-03-14 11:19:00,
2013-03-14 04:25:00,60.8,35.4,30.13,NE,40,12.0,17.0,37,0.00,,,0.00,meteohub,2013-03-14 11:25:00,
2013-03-14 04:30:00,60.6,35.4,30.13,NE,41,12.0,15.0,37,0.00,,,0.00,meteohub,2013-03-14 11:30:00,
2013-03-14 04:36:00,60.4,35.2,30.13,NE,44,9.0,15.0,37,0.00,,,0.00,meteohub,2013-03-14 11:36:00,
2013-03-14 04:41:00,60.3,35.2,30.13,NE,35,12.0,14.0,37,0.00,,,0.00,meteohub,2013-03-14 11:41:00,
2013-03-14 04:46:00,60.3,35.2,30.13,NE,52,12.0,14.0,37,0.00,,,0.00,meteohub,2013-03-14 11:46:00,
2013-03-14 04:52:00,60.3,35.2,30.13,ENE,61,11.0,16.0,37,0.00,,,0.00,meteohub,2013-03-14 11:52:00,
2013-03-14 04:57:00,60.3,35.2,30.13,NE,38,10.0,16.0,37,0.00,,,0.00,meteohub,2013-03-14 11:57:00,
2013-03-14 05:02:00,60.1,35.2,30.13,NE,52,11.0,16.0,37,0.00,,,0.00,meteohub,2013-03-14 12:02:00,
2013-03-14 05:07:00,60.1,35.2,30.13,NE,34,12.0,14.0,37,0.00,,,0.00,meteohub,2013-03-14 12:07:00,
2013-03-14 05:12:00,60.1,35.2,30.13,NE,36,8.0,13.0,37,0.00,,,0.00,meteohub,2013-03-14 12:12:00,
2013-03-14 05:17:00,59.9,35.2,30.13,NE,34,10.0,13.0,37,0.00,,,0.00,meteohub,2013-03-14 12:17:00,
2013-03-14 05:22:00,59.7,35.2,30.14,NE,50,8.0,13.0,37,0.00,,,0.00,meteohub,2013-03-14 12:22:00,
2013-03-14 05:27:00,59.9,35.1,30.14,NNE,29,10.0,13.0,37,0.00,,,0.00,meteohub,2013-03-14 12:27:00,
2013-03-14 05:32:00,60.1,35.1,30.14,NNE,22,8.0,13.0,37,0.00,,,0.00,meteohub,2013-03-14 12:32:00,
2013-03-14 05:37:00,60.1,35.1,30.13,NE,44,10.0,13.0,37,0.00,,,0.00,meteohub,2013-03-14 12:37:00,
2013-03-14 05:43:00,60.1,35.1,30.14,NE,36,9.0,14.0,37,0.00,,,0.00,meteohub,2013-03-14 12:43:00,
2013-03-14 05:48:00,60.1,35.1,30.14,ENE,70,9.0,14.0,37,0.00,,,0.00,meteohub,2013-03-14 12:48:00,
2013-03-14 05:53:00,60.1,35.1,30.14,NE,41,9.0,15.0,37,0.00,,,0.00,meteohub,2013-03-14 12:53:00,
2013-03-14 05:59:00,60.1,35.1,30.14,NNE,33,9.0,15.0,37,0.00,,,0.00,meteohub,2013-03-14 12:59:00,
2013-03-14 06:04:00,60.3,34.9,30.14,NE,44,11.0,15.0,37,0.00,,,0.00,meteohub,2013-03-14 13:04:00,
2013-03-14 06:09:00,60.4,34.9,30.14,East,97,15.0,17.0,37,0.00,,,0.00,meteohub,2013-03-14 13:09:00,
2013-03-14 06:15:00,60.4,34.9,30.14,NE,37,10.0,17.0,37,0.00,,,0.00,meteohub,2013-03-14 13:15:00,
2013-03-14 06:20:00,60.4,34.9,30.14,NNE,30,11.0,16.0,37,0.00,,,0.00,meteohub,2013-03-14 13:20:00,
2013-03-14 06:26:00,60.6,34.7,30.14,ENE,61,10.0,16.0,37,0.00,,,0.00,meteohub,2013-03-14 13:26:00,
2013-03-14 06:31:00,60.4,34.7,30.15,NE,54,11.0,17.0,37,0.00,,,0.00,meteohub,2013-03-14 13:31:00,
2013-03-14 06:36:00,61.3,35.1,30.15,NE,44,15.0,17.0,37,0.00,,,0.00,meteohub,2013-03-14 13:36:00,
2013-03-14 06:41:00,61.3,35.1,30.15,NE,44,15.0,17.0,36,0.00,,,0.00,meteohub,2013-03-14 13:41:00,
2013-03-14 06:47:00,61.3,35.2,30.15,NE,44,15.0,16.0,37,0.00,,,0.00,meteohub,2013-03-14 13:47:00,
2013-03-14 06:52:00,61.3,34.9,30.15,North,-999,-999.0,15.0,37,0.00,,,0.00,meteohub,2013-03-14 13:52:00,
2013-03-14 07:50:00,62.8,34.7,30.13,North,-999,-999.0,-999.0,37,-99.99,,,0.00,meteohub,2013-03-14 14:50:00,
2013-03-14 07:56:00,63.0,34.5,30.14,North,-999,-999.0,-999.0,37,0.00,,,0.00,meteohub,2013-03-14 14:56:00,
2013-03-14 08:01:00,63.1,34.5,30.14,NE,36,14.0,21.0,37,0.00,,,0.00,meteohub,2013-03-14 15:01:00,
2013-03-14 08:07:00,63.3,34.3,30.14,NE,50,14.0,21.0,37,0.00,,,0.00,meteohub,2013-03-14 15:07:00,
2013-03-14 08:14:00,63.7,34.3,30.14,ENE,59,19.0,22.0,37,0.00,,,0.00,meteohub,2013-03-14 15:14:00,
2013-03-14 08:19:00,63.9,34.2,30.14,NE,53,20.0,22.0,37,0.00,,,0.00,meteohub,2013-03-14 15:19:00,
2013-03-14 08:24:00,64.0,34.2,30.15,North,357,12.0,23.0,37,0.00,,,0.00,meteohub,2013-03-14 15:24:00,
2013-03-14 08:29:00,64.2,34.2,30.15,NNE,27,19.0,23.0,37,0.00,,,0.00,meteohub,2013-03-14 15:29:00,
2013-03-14 08:34:00,64.2,34.2,30.15,NE,41,11.0,22.0,37,0.00,,,0.00,meteohub,2013-03-14 15:34:00,
2013-03-14 08:40:00,64.4,34.2,30.15,NE,49,16.0,23.0,37,0.00,,,0.00,meteohub,2013-03-14 15:40:00,
2013-03-14 08:45:00,64.6,34.9,30.15,ENE,63,17.0,23.0,38,0.00,,,0.00,meteohub,2013-03-14 15:45:00,
2013-03-14 08:50:00,64.8,34.9,30.16,NNE,25,12.0,23.0,38,0.00,,,0.00,meteohub,2013-03-14 15:50:00,
2013-03-14 08:55:00,64.9,34.9,30.16,NE,56,19.0,24.0,38,0.00,,,0.00,meteohub,2013-03-14 15:55:00,
2013-03-14 09:00:00,64.8,34.9,30.16,NE,54,16.0,24.0,38,0.00,,,0.00,meteohub,2013-03-14 16:00:00,
2013-03-14 09:05:00,64.9,34.7,30.16,NNE,27,22.0,22.0,38,0.00,,,0.00,meteohub,2013-03-14 16:05:00,
2013-03-14 09:10:00,64.9,34.7,30.16,NE,53,16.0,22.0,38,0.00,,,0.00,meteohub,2013-03-14 16:10:00,
2013-03-14 09:15:00,65.1,34.7,30.16,NE,49,16.0,22.0,38,0.00,,,0.00,meteohub,2013-03-14 16:15:00,
2013-03-14 09:20:00,65.5,34.7,30.16,NE,40,15.0,22.0,38,0.00,,,0.00,meteohub,2013-03-14 16:20:00,
2013-03-14 09:25:00,65.5,34.7,30.16,NE,34,16.0,22.0,38,0.00,,,0.00,meteohub,2013-03-14 16:25:00,
2013-03-14 09:30:00,65.8,34.7,30.16,NE,34,17.0,21.0,38,0.00,,,0.00,meteohub,2013-03-14 16:30:00,
2013-03-14 09:36:00,66.2,34.7,30.16,NE,53,11.0,21.0,38,0.00,,,0.00,meteohub,2013-03-14 16:36:00,
2013-03-14 09:40:00,66.4,34.7,30.16,NE,49,15.0,20.0,38,0.00,,,0.00,meteohub,2013-03-14 16:40:00,
2013-03-14 09:46:00,66.4,34.7,30.16,NNE,33,15.0,21.0,38,0.00,,,0.00,meteohub,2013-03-14 16:46:00,
2013-03-14 09:51:00,66.9,34.7,30.16,NE,49,19.0,21.0,38,0.00,,,0.00,meteohub,2013-03-14 16:51:00,
2013-03-14 09:56:00,66.9,34.7,30.16,NE,51,19.0,21.0,38,0.00,,,0.00,meteohub,2013-03-14 16:56:00,
2013-03-14 10:01:00,66.7,34.7,30.16,NNE,29,16.0,24.0,38,0.00,,,0.00,meteohub,2013-03-14 17:01:00,
2013-03-14 10:06:00,66.7,34.7,30.17,NE,56,17.0,24.0,38,0.00,,,0.00,meteohub,2013-03-14 17:06:00,
2013-03-14 10:12:00,66.7,34.7,30.17,NE,47,20.0,24.0,38,0.00,,,0.00,meteohub,2013-03-14 17:12:00,
2013-03-14 10:17:00,66.9,34.9,30.17,North,11,17.0,24.0,38,0.00,,,0.00,meteohub,2013-03-14 17:17:00,
2013-03-14 10:22:00,67.3,34.9,30.17,NE,37,20.0,24.0,38,0.00,,,0.00,meteohub,2013-03-14 17:22:00,
2013-03-14 10:27:00,67.5,34.9,30.17,NE,49,19.0,24.0,38,0.00,,,0.00,meteohub,2013-03-14 17:27:00,
2013-03-14 10:32:00,67.6,34.9,30.17,NE,56,14.0,24.0,38,0.00,,,0.00,meteohub,2013-03-14 17:32:00,
2013-03-14 10:37:00,67.5,34.9,30.17,ENE,59,20.0,25.0,38,0.00,,,0.00,meteohub,2013-03-14 17:37:00,
2013-03-14 10:42:00,67.3,34.9,30.17,NE,54,17.0,25.0,38,0.00,,,0.00,meteohub,2013-03-14 17:42:00,
2013-03-14 10:47:00,67.5,34.9,30.17,NNE,33,23.0,25.0,38,0.00,,,0.00,meteohub,2013-03-14 17:47:00,
2013-03-14 10:52:00,67.5,34.9,30.16,ENE,63,14.0,25.0,38,0.00,,,0.00,meteohub,2013-03-14 17:52:00,
2013-03-14 10:57:00,67.6,34.9,30.16,NE,51,16.0,25.0,38,0.00,,,0.00,meteohub,2013-03-14 17:57:00,
2013-03-14 11:02:00,68.2,34.9,30.16,NNE,22,18.0,26.0,38,0.00,,,0.00,meteohub,2013-03-14 18:02:00,
2013-03-14 11:08:00,67.8,34.9,30.17,NE,39,15.0,28.0,38,0.00,,,0.00,meteohub,2013-03-14 18:08:00,
2013-03-14 11:13:00,67.8,34.9,30.16,NE,49,17.0,28.0,38,0.00,,,0.00,meteohub,2013-03-14 18:13:00,
2013-03-14 11:18:00,68.4,35.1,30.16,NNE,24,15.0,28.0,38,0.00,,,0.00,meteohub,2013-03-14 18:18:00,
2013-03-14 11:23:00,68.2,35.1,30.16,NNE,23,17.0,25.0,38,0.00,,,0.00,meteohub,2013-03-14 18:23:00,
2013-03-14 11:28:00,68.5,35.1,30.16,NNE,30,21.0,27.0,38,0.00,,,0.00,meteohub,2013-03-14 18:28:00,
2013-03-14 11:34:00,69.1,35.2,30.16,NE,41,18.0,27.0,38,0.00,,,0.00,meteohub,2013-03-14 18:34:00,
2013-03-14 11:39:00,69.4,35.2,30.16,NNE,33,16.0,26.0,38,0.00,,,0.00,meteohub,2013-03-14 18:39:00,
2013-03-14 11:45:00,69.4,35.2,30.16,NE,41,16.0,29.0,38,0.00,,,0.00,meteohub,2013-03-14 18:45:00,
2013-03-14 11:50:00,69.3,35.2,30.16,NNE,22,16.0,29.0,38,0.00,,,0.00,meteohub,2013-03-14 18:50:00,
2013-03-14 11:55:00,69.3,35.2,30.16,NE,34,14.0,27.0,38,0.00,,,0.00,meteohub,2013-03-14 18:55:00,
2013-03-14 12:01:00,69.6,35.2,30.16,NNE,30,17.0,26.0,38,0.00,,,0.00,meteohub,2013-03-14 19:01:00,
2013-03-14 12:06:00,69.4,35.4,30.16,NNE,22,20.0,26.0,38,0.00,,,0.00,meteohub,2013-03-14 19:06:00,
2013-03-14 12:11:00,70.0,35.4,30.16,NE,43,21.0,28.0,38,0.00,,,0.00,meteohub,2013-03-14 19:11:00,
2013-03-14 12:16:00,70.2,35.4,30.16,ENE,63,19.0,28.0,38,0.00,,,0.00,meteohub,2013-03-14 19:16:00,
2013-03-14 12:22:00,70.2,35.4,30.16,NNE,32,16.0,28.0,38,0.00,,,0.00,meteohub,2013-03-14 19:22:00,
2013-03-14 12:27:00,70.3,35.4,30.16,NE,44,14.0,26.0,38,0.00,,,0.00,meteohub,2013-03-14 19:27:00,
2013-03-14 12:32:00,70.5,35.6,30.16,NE,56,17.0,24.0,38,0.00,,,0.00,meteohub,2013-03-14 19:32:00,
2013-03-14 12:37:00,70.2,35.6,30.15,NNE,23,19.0,24.0,38,0.00,,,0.00,meteohub,2013-03-14 19:37:00,
2013-03-14 12:42:00,70.5,35.6,30.15,NE,41,21.0,25.0,38,0.00,,,0.00,meteohub,2013-03-14 19:42:00,
2013-03-14 12:47:00,70.2,35.6,30.14,NE,37,17.0,25.0,38,0.00,,,0.00,meteohub,2013-03-14 19:47:00,
2013-03-14 12:52:00,70.3,35.6,30.15,NE,36,14.0,25.0,38,0.00,,,0.00,meteohub,2013-03-14 19:52:00,
2013-03-14 12:57:00,70.3,35.6,30.14,NE,50,18.0,26.0,38,0.00,,,0.00,meteohub,2013-03-14 19:57:00,
2013-03-14 13:02:00,70.3,35.6,30.14,NE,38,17.0,27.0,38,0.00,,,0.00,meteohub,2013-03-14 20:02:00,
2013-03-14 13:07:00,70.3,35.6,30.14,NE,50,15.0,27.0,38,0.00,,,0.00,meteohub,2013-03-14 20:07:00,
2013-03-14 13:12:00,70.3,35.8,30.14,NNE,30,17.0,24.0,38,0.00,,,0.00,meteohub,2013-03-14 20:12:00,
2013-03-14 13:17:00,70.7,35.8,30.14,NE,41,12.0,25.0,38,0.00,,,0.00,meteohub,2013-03-14 20:17:00,
2013-03-14 13:23:00,70.9,36.0,30.14,NE,44,19.0,25.0,38,0.00,,,0.00,meteohub,2013-03-14 20:23:00,
2013-03-14 13:28:00,70.5,36.0,30.14,NNE,32,16.0,25.0,38,0.00,,,0.00,meteohub,2013-03-14 20:28:00,
2013-03-14 13:33:00,71.1,36.0,30.14,NNE,33,14.0,25.0,38,0.00,,,0.00,meteohub,2013-03-14 20:33:00,
2013-03-14 13:38:00,70.9,36.0,30.14,NE,34,14.0,24.0,38,0.00,,,0.00,meteohub,2013-03-14 20:38:00,
2013-03-14 13:43:00,71.1,36.1,30.13,NE,40,12.0,23.0,38,0.00,,,0.00,meteohub,2013-03-14 20:43:00,
2013-03-14 13:48:00,71.2,36.1,30.13,ENE,65,11.0,22.0,38,0.00,,,0.00,meteohub,2013-03-14 20:48:00,
2013-03-14 13:54:00,71.4,36.1,30.13,NE,34,10.0,22.0,38,0.00,,,0.00,meteohub,2013-03-14 20:54:00,
2013-03-14 13:59:00,72.0,37.0,30.13,NE,43,12.0,27.0,39,0.00,,,0.00,meteohub,2013-03-14 20:59:00,
2013-03-14 14:04:00,72.0,37.0,30.13,NE,34,10.0,27.0,39,0.00,,,0.00,meteohub,2013-03-14 21:04:00,
2013-03-14 14:09:00,72.7,37.0,30.13,NE,54,15.0,27.0,39,0.00,,,0.00,meteohub,2013-03-14 21:09:00,
2013-03-14 14:15:00,72.1,37.2,30.13,ENE,63,9.0,18.0,39,0.00,,,0.00,meteohub,2013-03-14 21:15:00,
2013-03-14 14:20:00,72.3,37.2,30.13,NE,43,14.0,18.0,39,0.00,,,0.00,meteohub,2013-03-14 21:20:00,
2013-03-14 14:25:00,72.9,37.2,30.13,ENE,58,8.0,18.0,39,0.00,,,0.00,meteohub,2013-03-14 21:25:00,
2013-03-14 14:30:00,72.3,37.2,30.13,NE,34,6.0,16.0,39,0.00,,,0.00,meteohub,2013-03-14 21:30:00,
2013-03-14 14:35:00,72.1,37.4,30.13,NE,44,4.0,16.0,39,0.00,,,0.00,meteohub,2013-03-14 21:35:00,
2013-03-14 14:40:00,72.9,37.4,30.13,NE,50,6.0,15.0,39,0.00,,,0.00,meteohub,2013-03-14 21:40:00,
2013-03-14 14:45:00,73.2,37.4,30.13,ESE,103,6.0,15.0,39,0.00,,,0.00,meteohub,2013-03-14 21:45:00,
2013-03-14 14:51:00,73.6,37.6,30.13,NE,36,10.0,12.0,39,0.00,,,0.00,meteohub,2013-03-14 21:51:00,
2013-03-14 14:56:00,73.6,37.6,30.12,East,98,4.0,12.0,39,0.00,,,0.00,meteohub,2013-03-14 21:56:00,
2013-03-14 15:02:00,73.2,37.6,30.12,ENE,67,5.0,15.0,39,0.00,,,0.00,meteohub,2013-03-14 22:02:00,
2013-03-14 15:07:00,72.9,37.8,30.12,East,95,6.0,15.0,39,0.00,,,0.00,meteohub,2013-03-14 22:07:00,
2013-03-14 15:12:00,72.9,37.8,30.12,ENE,76,2.0,15.0,39,0.00,,,0.00,meteohub,2013-03-14 22:12:00,
2013-03-14 15:17:00,73.0,37.8,30.12,East,101,10.0,13.0,39,0.00,,,0.00,meteohub,2013-03-14 22:17:00,
2013-03-14 15:22:00,72.9,37.9,30.12,NNE,30,5.0,13.0,39,0.00,,,0.00,meteohub,2013-03-14 22:22:00,
2013-03-14 15:27:00,72.9,37.9,30.12,ENE,74,7.0,13.0,39,0.00,,,0.00,meteohub,2013-03-14 22:27:00,
2013-03-14 15:32:00,72.9,38.1,30.12,NE,49,11.0,13.0,39,0.00,,,0.00,meteohub,2013-03-14 22:32:00,
2013-03-14 15:37:00,72.7,38.1,30.12,NE,44,8.0,13.0,39,0.00,,,0.00,meteohub,2013-03-14 22:37:00,
2013-03-14 15:42:00,72.7,38.3,30.12,NE,56,11.0,12.0,39,0.00,,,0.00,meteohub,2013-03-14 22:42:00,
2013-03-14 15:48:00,72.5,38.3,30.12,ENE,63,7.0,12.0,39,0.00,,,0.00,meteohub,2013-03-14 22:48:00,
2013-03-14 15:53:00,72.7,38.5,30.12,NE,39,10.0,12.0,39,0.00,,,0.00,meteohub,2013-03-14 22:53:00,
2013-03-14 15:58:00,72.7,38.5,30.12,ENE,70,8.0,12.0,39,0.00,,,0.00,meteohub,2013-03-14 22:58:00,
2013-03-14 16:03:00,72.3,38.7,30.12,ENE,72,8.0,12.0,39,0.00,,,0.00,meteohub,2013-03-14 23:03:00,
2013-03-14 16:08:00,72.1,38.7,30.12,ENE,74,4.0,11.0,39,0.00,,,0.00,meteohub,2013-03-14 23:08:00,
2013-03-14 16:13:00,72.3,38.7,30.12,NE,45,8.0,12.0,39,0.00,,,0.00,meteohub,2013-03-14 23:13:00,
2013-03-14 16:18:00,72.1,38.7,30.11,East,89,8.0,12.0,39,0.00,,,0.00,meteohub,2013-03-14 23:18:00,
2013-03-14 16:23:00,72.3,38.8,30.11,NNE,26,3.0,12.0,39,0.00,,,0.00,meteohub,2013-03-14 23:23:00,
2013-03-14 16:29:00,72.7,39.0,30.11,NNE,27,9.0,11.0,39,0.00,,,0.00,meteohub,2013-03-14 23:29:00,
2013-03-14 16:34:00,72.1,39.0,30.11,NE,50,10.0,11.0,39,0.00,,,0.00,meteohub,2013-03-14 23:34:00,
2013-03-14 16:39:00,72.1,39.2,30.11,ENE,57,7.0,11.0,39,0.00,,,0.00,meteohub,2013-03-14 23:39:00,
2013-03-14 16:44:00,72.3,39.2,30.11,NE,47,4.0,11.0,39,0.00,,,0.00,meteohub,2013-03-14 23:44:00,
2013-03-14 16:49:00,72.1,39.4,30.11,NE,34,5.0,10.0,39,0.00,,,0.00,meteohub,2013-03-14 23:49:00,
2013-03-14 16:54:00,72.1,39.4,30.10,ENE,75,4.0,9.0,39,0.00,,,0.00,meteohub,2013-03-14 23:54:00,
2013-03-14 17:00:00,72.0,39.6,30.11,ENE,74,5.0,9.0,39,0.00,,,0.00,meteohub,2013-03-15 00:00:00,
2013-03-14 17:05:00,72.0,39.6,30.10,East,81,4.0,9.0,39,0.00,,,0.00,meteohub,2013-03-15 00:05:00,
2013-03-14 17:10:00,71.8,39.9,30.10,NE,39,3.0,9.0,39,0.00,,,0.00,meteohub,2013-03-15 00:10:00,
2013-03-14 17:15:00,71.8,39.9,30.10,ENE,60,3.0,8.0,39,0.00,,,0.00,meteohub,2013-03-15 00:15:00,
2013-03-14 17:20:00,71.8,40.1,30.10,NE,45,3.0,8.0,39,0.00,,,0.00,meteohub,2013-03-15 00:20:00,
2013-03-14 17:25:00,72.1,40.1,30.11,NE,44,2.0,8.0,39,0.00,,,0.00,meteohub,2013-03-15 00:25:00,
2013-03-14 17:30:00,72.1,40.1,30.11,East,92,3.0,6.0,39,0.00,,,0.00,meteohub,2013-03-15 00:30:00,
2013-03-14 17:35:00,72.7,40.3,30.11,NE,44,2.0,7.0,39,0.00,,,0.00,meteohub,2013-03-15 00:35:00,
2013-03-14 17:41:00,72.7,40.3,30.10,NNW,337,2.0,9.0,39,0.00,,,0.00,meteohub,2013-03-15 00:41:00,
2013-03-14 17:46:00,71.8,40.5,30.10,WSW,241,6.0,9.0,39,0.00,,,0.00,meteohub,2013-03-15 00:46:00,
2013-03-14 17:51:00,71.2,40.6,30.10,SW,236,8.0,9.0,39,0.00,,,0.00,meteohub,2013-03-15 00:51:00,
2013-03-14 17:56:00,70.7,40.8,30.10,WSW,238,4.0,9.0,39,0.00,,,0.00,meteohub,2013-03-15 00:56:00,
2013-03-14 18:01:00,70.0,40.8,30.10,SW,228,6.0,9.0,39,0.00,,,0.00,meteohub,2013-03-15 01:01:00,
2013-03-14 18:06:00,69.6,41.0,30.09,WSW,256,4.0,10.0,39,0.00,,,0.00,meteohub,2013-03-15 01:06:00,
2013-03-14 18:11:00,69.4,41.0,30.10,WSW,250,5.0,10.0,39,0.00,,,0.00,meteohub,2013-03-15 01:11:00,
2013-03-14 18:16:00,69.1,41.9,30.10,West,270,5.0,10.0,40,0.00,,,0.00,meteohub,2013-03-15 01:16:00,
2013-03-14 18:21:00,68.5,41.2,30.10,West,262,2.0,7.0,39,0.00,,,0.00,meteohub,2013-03-15 01:21:00,
2013-03-14 18:26:00,68.2,41.4,30.09,WSW,241,4.0,7.0,39,0.00,,,0.00,meteohub,2013-03-15 01:26:00,
2013-03-14 18:31:00,67.5,41.5,30.09,WSW,246,7.0,8.0,39,0.00,,,0.00,meteohub,2013-03-15 01:31:00,
2013-03-14 18:37:00,66.6,41.5,30.09,WSW,240,4.0,8.0,39,0.00,,,0.00,meteohub,2013-03-15 01:37:00,
2013-03-14 18:42:00,65.7,41.7,30.09,WSW,250,6.0,8.0,39,0.00,,,0.00,meteohub,2013-03-15 01:42:00,
2013-03-14 18:47:00,64.4,41.7,30.09,WSW,248,6.0,8.0,39,0.00,,,0.00,meteohub,2013-03-15 01:47:00,
2013-03-14 18:52:00,63.5,41.7,30.09,WSW,257,6.0,8.0,39,0.00,,,0.00,meteohub,2013-03-15 01:52:00,
2013-03-14 18:57:00,63.1,41.7,30.09,WSW,250,7.0,8.0,39,0.00,,,0.00,meteohub,2013-03-15 01:57:00,
2013-03-14 19:02:00,63.1,41.7,30.09,WSW,250,6.0,8.0,39,0.00,,,0.00,meteohub,2013-03-15 02:02:00,
2013-03-14 19:08:00,63.1,41.7,30.09,WSW,243,5.0,7.0,39,0.00,,,0.00,meteohub,2013-03-15 02:08:00,
2013-03-14 19:13:00,63.1,41.7,30.09,WSW,240,4.0,7.0,39,0.00,,,0.00,meteohub,2013-03-15 02:13:00,
2013-03-14 19:18:00,62.8,41.7,30.09,WSW,243,5.0,7.0,39,0.00,,,0.00,meteohub,2013-03-15 02:18:00,
2013-03-14 19:23:00,62.8,41.7,30.09,SW,236,4.0,6.0,39,0.00,,,0.00,meteohub,2013-03-15 02:23:00,
2013-03-14 19:28:00,63.0,41.7,30.09,WSW,240,1.0,6.0,39,0.00,,,0.00,meteohub,2013-03-15 02:28:00,
2013-03-14 19:33:00,62.4,41.7,30.09,WSW,240,0.0,5.0,39,0.00,,,0.00,meteohub,2013-03-15 02:33:00,
2013-03-14 19:39:00,62.1,41.7,30.09,WSW,241,0.0,5.0,39,0.00,,,0.00,meteohub,2013-03-15 02:39:00,
2013-03-14 19:44:00,62.2,41.7,30.09,WSW,240,2.0,5.0,39,0.00,,,0.00,meteohub,2013-03-15 02:44:00,
2013-03-14 19:49:00,62.6,41.7,30.09,WSW,246,4.0,4.0,39,0.00,,,0.00,meteohub,2013-03-15 02:49:00,
2013-03-14 19:55:00,63.0,41.9,30.10,WSW,242,4.0,5.0,39,0.00,,,0.00,meteohub,2013-03-15 02:55:00,
2013-03-14 20:00:00,63.1,41.7,30.10,WSW,242,3.0,5.0,39,0.00,,,0.00,meteohub,2013-03-15 03:00:00,
2013-03-14 20:05:00,63.3,41.7,30.09,WSW,242,3.0,5.0,39,0.00,,,0.00,meteohub,2013-03-15 03:05:00,
2013-03-14 20:11:00,63.9,41.7,30.10,West,266,3.0,5.0,39,0.00,,,0.00,meteohub,2013-03-15 03:11:00,
2013-03-14 20:17:00,64.0,41.7,30.10,West,269,3.0,5.0,39,0.00,,,0.00,meteohub,2013-03-15 03:17:00,
2013-03-14 20:22:00,64.0,41.7,30.10,WNW,283,2.0,5.0,39,0.00,,,0.00,meteohub,2013-03-15 03:22:00,
2013-03-14 20:27:00,64.2,41.7,30.10,WNW,283,2.0,4.0,39,0.00,,,0.00,meteohub,2013-03-15 03:27:00,
2013-03-14 20:32:00,64.2,41.7,30.10,WNW,283,2.0,4.0,39,0.00,,,0.00,meteohub,2013-03-15 03:32:00,
2013-03-14 20:37:00,64.6,41.7,30.10,WNW,282,2.0,3.0,39,0.00,,,0.00,meteohub,2013-03-15 03:37:00,
2013-03-14 20:42:00,64.4,41.7,30.10,West,271,4.0,4.0,39,0.00,,,0.00,meteohub,2013-03-15 03:42:00,
2013-03-14 20:47:00,64.2,41.7,30.10,West,276,3.0,4.0,39,0.00,,,0.00,meteohub,2013-03-15 03:47:00,
2013-03-14 20:52:00,64.2,41.7,30.10,West,281,3.0,5.0,39,0.00,,,0.00,meteohub,2013-03-15 03:52:00,
2013-03-14 20:57:00,64.0,41.7,30.11,WNW,291,2.0,5.0,39,0.00,,,0.00,meteohub,2013-03-15 03:57:00,
2013-03-14 21:00:00,64.0,41.7,30.11,NW,317,4.0,5.0,39,0.00,,,0.00,meteohub,2013-03-15 04:00:00,
2013-03-14 21:01:00,64.0,41.7,30.11,NW,319,4.0,4.0,39,0.00,,,0.00,meteohub,2013-03-15 04:01:00,
2013-03-14 21:02:00,64.0,41.7,30.11,NW,323,4.0,4.0,39,0.00,,,0.00,meteohub,2013-03-15 04:02:00,
2013-03-14 21:07:00,64.4,41.7,30.11,NNW,329,3.0,5.0,39,0.00,,,0.00,meteohub,2013-03-15 04:07:00,
2013-03-14 21:12:00,64.6,41.7,30.11,NNW,328,2.0,5.0,39,0.00,,,0.00,meteohub,2013-03-15 04:12:00,
2013-03-14 21:17:00,64.8,41.7,30.11,NNW,345,2.0,5.0,39,0.00,,,0.00,meteohub,2013-03-15 04:17:00,
2013-03-14 21:22:00,64.8,41.7,30.11,NNW,334,3.0,4.0,39,0.00,,,0.00,meteohub,2013-03-15 04:22:00,
2013-03-14 21:28:00,64.9,41.7,30.11,NNW,335,1.0,3.0,39,0.00,,,0.00,meteohub,2013-03-15 04:28:00,
2013-03-14 21:33:00,65.1,41.7,30.11,NNW,334,1.0,3.0,39,0.00,,,0.00,meteohub,2013-03-15 04:33:00,
2013-03-14 21:38:00,65.1,41.5,30.11,NNW,335,0.0,3.0,39,0.00,,,0.00,meteohub,2013-03-15 04:38:00,
2013-03-14 21:43:00,64.9,41.5,30.11,NNW,335,0.0,2.0,39,0.00,,,0.00,meteohub,2013-03-15 04:43:00,
2013-03-14 21:48:00,64.8,41.5,30.11,NNW,335,1.0,2.0,39,0.00,,,0.00,meteohub,2013-03-15 04:48:00,
2013-03-14 21:54:00,64.9,41.5,30.11,WNW,295,1.0,3.0,39,0.00,,,0.00,meteohub,2013-03-15 04:54:00,
2013-03-14 21:59:00,64.9,41.5,30.11,NW,323,3.0,4.0,39,0.00,,,0.00,meteohub,2013-03-15 04:59:00,
2013-03-14 22:05:00,64.9,41.4,30.11,NW,323,3.0,4.0,39,0.00,,,0.00,meteohub,2013-03-15 05:05:00,
2013-03-14 22:10:00,64.9,41.4,30.11,NW,323,3.0,4.0,39,0.00,,,0.00,meteohub,2013-03-15 05:10:00,
2013-03-14 22:16:00,65.1,41.4,30.11,NNW,328,2.0,4.0,39,0.00,,,0.00,meteohub,2013-03-15 05:16:00,
2013-03-14 22:21:00,65.3,41.2,30.11,West,281,2.0,4.0,39,0.00,,,0.00,meteohub,2013-03-15 05:21:00,
2013-03-14 22:26:00,65.5,40.5,30.11,West,280,2.0,3.0,38,0.00,,,0.00,meteohub,2013-03-15 05:26:00,
2013-03-14 22:31:00,65.7,40.5,30.11,West,280,3.0,3.0,38,0.00,,,0.00,meteohub,2013-03-15 05:31:00,
2013-03-14 22:36:00,65.7,40.5,30.11,West,280,3.0,3.0,38,0.00,,,0.00,meteohub,2013-03-15 05:36:00,
2013-03-14 22:41:00,65.7,40.5,30.11,West,280,2.0,3.0,38,0.00,,,0.00,meteohub,2013-03-15 05:41:00,
2013-03-14 22:47:00,65.5,40.3,30.11,West,280,2.0,3.0,38,0.00,,,0.00,meteohub,2013-03-15 05:47:00,
2013-03-14 22:52:00,65.7,40.3,30.11,West,280,3.0,3.0,38,0.00,,,0.00,meteohub,2013-03-15 05:52:00,
2013-03-14 22:57:00,65.7,40.3,30.11,West,280,5.0,5.0,38,0.00,,,0.00,meteohub,2013-03-15 05:57:00,
2013-03-14 23:02:00,65.5,40.3,30.11,West,280,5.0,5.0,38,0.00,,,0.00,meteohub,2013-03-15 06:02:00,
2013-03-14 23:07:00,65.1,40.3,30.11,West,278,4.0,5.0,38,0.00,,,0.00,meteohub,2013-03-15 06:07:00,
2013-03-14 23:12:00,64.9,40.1,30.11,WSW,257,4.0,5.0,38,0.00,,,0.00,meteohub,2013-03-15 06:12:00,
2013-03-14 23:17:00,64.8,40.1,30.11,WSW,252,4.0,5.0,38,0.00,,,0.00,meteohub,2013-03-15 06:17:00,
2013-03-14 23:22:00,64.6,40.1,30.11,WSW,256,5.0,5.0,38,0.00,,,0.00,meteohub,2013-03-15 06:22:00,
2013-03-14 23:27:00,64.2,40.1,30.11,WSW,250,5.0,5.0,38,0.00,,,0.00,meteohub,2013-03-15 06:27:00,
2013-03-14 23:32:00,64.0,40.1,30.11,WSW,250,4.0,5.0,38,0.00,,,0.00,meteohub,2013-03-15 06:32:00,
2013-03-14 23:37:00,64.0,39.9,30.11,West,266,5.0,5.0,38,0.00,,,0.00,meteohub,2013-03-15 06:37:00,
2013-03-14 23:43:00,64.6,39.9,30.11,West,266,5.0,6.0,38,0.00,,,0.00,meteohub,2013-03-15 06:43:00,
2013-03-14 23:48:00,64.6,39.9,30.11,West,266,5.0,6.0,38,0.00,,,0.00,meteohub,2013-03-15 06:48:00,
2013-03-14 23:53:00,64.6,39.9,30.11,West,259,5.0,6.0,38,0.00,,,0.00,meteohub,2013-03-15 06:53:00,
2013-03-14 23:58:00,64.6,39.9,30.11,WSW,257,5.0,6.0,38,0.00,,,0.00,meteohub,2013-03-15 06:58:00,